createdAt,value
2019-04-14T00:01:39.145Z,4.48
2019-04-14T00:04:48.693Z,4.20
2019-04-14T00:08:41.486Z,4.40
2019-04-14T00:11:50.466Z,4.31
2019-04-14T00:15:25.952Z,4.39
2019-04-14T00:18:44.780Z,4.40
2019-04-14T00:22:11.687Z,4.28
2019-04-14T00:25:47.678Z,4.28
2019-04-14T00:29:23.884Z,4.33
2019-04-14T00:32:50.947Z,4.25
2019-04-14T00:36:26.514Z,4.20
2019-04-14T00:39:53.286Z,4.17
2019-04-14T00:43:19.978Z,4.07
2019-04-14T00:46:47.462Z,4.09
2019-04-14T00:50:14.694Z,4.17
2019-04-14T00:53:51.311Z,4.13
2019-04-14T00:57:18.080Z,4.20
2019-04-14T01:00:45.139Z,4.11
2019-04-14T01:04:20.911Z,3.99
2019-04-14T01:07:57.037Z,4.06
2019-04-14T01:11:29.119Z,4.12
2019-04-14T01:14:36.615Z,4.03
2019-04-14T01:17:43.958Z,3.88
2019-04-14T01:20:51.445Z,3.93
2019-04-14T01:24:08.139Z,3.90
2019-04-14T01:27:25.631Z,3.83
2019-04-14T01:30:32.827Z,3.87
2019-04-14T01:33:40.185Z,3.86
2019-04-14T01:36:47.577Z,3.90
2019-04-14T01:39:54.956Z,3.87
2019-04-14T01:43:02.293Z,3.85
2019-04-14T01:46:17.745Z,3.77
2019-04-14T01:49:18.538Z,3.84
2019-04-14T01:52:45.783Z,3.94
2019-04-14T01:56:06.447Z,3.91
2019-04-14T01:59:13.727Z,3.99
2019-04-14T02:02:22.685Z,3.84
2019-04-14T02:05:39.311Z,4.04
2019-04-14T02:08:47.708Z,3.95
2019-04-14T02:11:55.292Z,3.94
2019-04-14T02:15:02.851Z,3.86
2019-04-14T02:18:20.701Z,3.96
2019-04-14T02:21:28.198Z,3.94
2019-04-14T02:24:46.005Z,3.96
2019-04-14T02:27:53.713Z,3.87
2019-04-14T02:31:13.105Z,3.80
2019-04-14T02:34:49.611Z,3.90
2019-04-14T02:38:02.260Z,3.81
2019-04-14T02:41:02.777Z,3.81
2019-04-14T02:44:24.224Z,3.78
2019-04-14T02:47:56.735Z,3.91
2019-04-14T02:50:56.178Z,3.86
2019-04-14T02:54:23.102Z,3.91
2019-04-14T02:57:47.330Z,4.02
2019-04-14T03:00:58.292Z,4.03
2019-04-14T03:04:04.128Z,3.96
2019-04-14T03:07:30.366Z,4.10
2019-04-14T03:14:01.244Z,4.18
2019-04-14T03:21:01.507Z,4.26
2019-04-14T03:24:32.706Z,4.29
2019-04-14T03:28:12.498Z,4.37
2019-04-14T03:31:52.019Z,4.38
2019-04-14T03:34:59.161Z,4.39
2019-04-14T03:38:08.493Z,4.27
2019-04-14T03:41:24.094Z,4.29
2019-04-14T03:44:41.475Z,4.42
2019-04-14T03:48:19.035Z,4.42
2019-04-14T03:51:16.690Z,4.29
2019-04-14T03:54:19.095Z,4.35
2019-04-14T03:57:06.217Z,4.37
2019-04-14T04:00:13.899Z,4.30
2019-04-14T04:03:21.838Z,4.28
2019-04-14T04:06:38.297Z,4.24
2019-04-14T04:09:51.881Z,4.23
2019-04-14T04:13:12.771Z,4.29
2019-04-14T04:16:41.937Z,4.20
2019-04-14T04:19:57.752Z,4.33
2019-04-14T04:23:38.263Z,4.45
2019-04-14T04:27:03.212Z,4.39
2019-04-14T04:30:25.412Z,4.34
2019-04-14T04:34:09.786Z,4.41
2019-04-14T04:37:45.454Z,4.34
2019-04-14T04:41:12.593Z,4.49
2019-04-14T04:44:29.262Z,4.46
2019-04-14T04:47:36.664Z,4.48
2019-04-14T04:50:54.227Z,4.61
2019-04-14T04:54:01.757Z,4.51
2019-04-14T04:57:08.985Z,4.58
2019-04-14T05:00:16.257Z,4.61
2019-04-14T05:03:23.453Z,4.58
2019-04-14T05:07:09.796Z,4.70
2019-04-14T05:10:24.462Z,4.67
2019-04-14T05:13:36.129Z,4.65
2019-04-14T05:16:44.022Z,4.59
2019-04-14T05:20:00.818Z,4.69
2019-04-14T05:23:17.351Z,4.61
2019-04-14T05:26:35.121Z,4.68
2019-04-14T05:29:43.018Z,4.69
2019-04-14T05:33:00.853Z,4.74
2019-04-14T05:36:08.550Z,4.75
2019-04-14T05:39:26.452Z,4.78
2019-04-14T05:42:34.110Z,4.66
2019-04-14T05:45:41.678Z,4.74
2019-04-14T05:48:58.138Z,4.83
2019-04-14T05:52:16.248Z,4.89
2019-04-14T05:55:24.199Z,4.86
2019-04-14T05:58:40.478Z,4.94
2019-04-14T06:01:57.282Z,4.99
2019-04-14T06:05:14.525Z,4.99
2019-04-14T06:08:21.047Z,4.82
2019-04-14T06:11:27.542Z,4.99
2019-04-14T06:14:34.164Z,5.06
2019-04-14T06:17:40.564Z,5.06
2019-04-14T06:20:47.083Z,5.07
2019-04-14T06:23:53.572Z,5.01
2019-04-14T06:27:00.235Z,5.08
2019-04-14T06:30:22.147Z,5.14
2019-04-14T06:33:34.290Z,5.23
2019-04-14T06:36:58.705Z,5.25
2019-04-14T06:40:06.710Z,5.34
2019-04-14T06:43:13.863Z,5.38
2019-04-14T06:46:21.095Z,5.38
2019-04-14T06:49:28.244Z,5.52
2019-04-14T06:52:35.568Z,5.48
2019-04-14T06:55:42.827Z,5.66
2019-04-14T07:03:12.623Z,5.75
2019-04-14T07:06:29.206Z,5.93
2019-04-14T07:09:36.518Z,5.90
2019-04-14T07:12:53.211Z,6.06
2019-04-14T07:16:00.353Z,6.11
2019-04-14T07:19:07.685Z,6.08
2019-04-14T07:22:24.390Z,6.19
2019-04-14T07:25:31.627Z,6.21
2019-04-14T07:28:38.815Z,6.13
2019-04-14T07:32:05.051Z,6.27
2019-04-14T07:35:30.284Z,6.12
2019-04-14T07:39:25.725Z,6.41
2019-04-14T07:43:04.086Z,6.41
2019-04-14T07:46:57.005Z,6.43
2019-04-14T07:50:30.435Z,6.48
2019-04-14T07:54:02.767Z,6.58
2019-04-14T07:57:12.527Z,6.66
2019-04-14T08:00:41.956Z,6.76
2019-04-14T08:04:14.513Z,6.78
2019-04-14T08:07:39.835Z,6.72
2019-04-14T08:10:56.660Z,6.74
2019-04-14T08:14:13.341Z,6.87
2019-04-14T08:17:20.655Z,6.95
2019-04-14T08:20:37.435Z,6.98
2019-04-14T08:23:54.196Z,6.95
2019-04-14T08:27:01.641Z,7.10
2019-04-14T08:30:18.184Z,7.14
2019-04-14T08:33:34.963Z,7.06
2019-04-14T08:36:42.820Z,6.99
2019-04-14T08:39:49.590Z,7.04
2019-04-14T08:43:26.321Z,7.14
2019-04-14T08:46:43.001Z,7.14
2019-04-14T08:50:14.996Z,7.23
2019-04-14T08:53:50.136Z,7.32
2019-04-14T08:57:03.997Z,7.20
2019-04-14T09:00:14.390Z,7.15
2019-04-14T09:03:34.956Z,7.16
2019-04-14T09:07:11.735Z,7.20
2019-04-14T09:10:22.823Z,7.29
2019-04-14T09:13:30.020Z,7.32
2019-04-14T09:16:37.270Z,7.24
2019-04-14T09:19:44.499Z,7.09
2019-04-14T09:22:51.742Z,7.06
2019-04-14T09:26:08.548Z,6.98
2019-04-14T09:29:15.743Z,6.97
2019-04-14T09:32:32.700Z,6.99
2019-04-14T09:35:49.331Z,7.20
2019-04-14T09:39:07.963Z,7.05
2019-04-14T09:42:15.230Z,7.13
2019-04-14T09:45:22.459Z,7.16
2019-04-14T09:48:29.755Z,7.31
2019-04-14T09:51:36.997Z,7.28
2019-04-14T09:54:44.228Z,7.23
2019-04-14T09:57:51.496Z,7.20
2019-04-14T10:00:58.735Z,7.19
2019-04-14T10:04:04.283Z,7.22
2019-04-14T10:07:11.589Z,7.39
2019-04-14T10:10:18.938Z,7.41
2019-04-14T10:13:26.319Z,7.44
2019-04-14T10:16:33.631Z,7.42
2019-04-14T10:19:50.337Z,7.45
2019-04-14T10:22:56.597Z,7.47
2019-04-14T10:26:04.451Z,7.48
2019-04-14T10:29:11.762Z,7.54
2019-04-14T10:32:18.887Z,7.54
2019-04-14T10:35:26.093Z,7.58
2019-04-14T10:38:33.211Z,7.49
2019-04-14T10:41:40.426Z,7.26
2019-04-14T10:44:47.675Z,7.54
2019-04-14T10:47:55.076Z,7.39
2019-04-14T10:51:02.386Z,7.35
2019-04-14T10:54:09.510Z,7.45
2019-04-14T10:57:27.020Z,7.54
2019-04-14T11:00:34.159Z,7.34
2019-04-14T11:03:41.477Z,7.30
2019-04-14T11:06:57.777Z,7.37
2019-04-14T11:11:01.000Z,7.47
2019-04-14T11:14:17.539Z,7.53
2019-04-14T11:17:24.744Z,7.65
2019-04-14T11:20:32.080Z,7.59
2019-04-14T11:23:48.751Z,7.42
2019-04-14T11:26:55.889Z,7.29
2019-04-14T11:30:03.668Z,7.21
2019-04-14T11:33:30.971Z,7.37
2019-04-14T11:36:50.378Z,7.37
2019-04-14T11:39:57.616Z,7.31
2019-04-14T11:43:04.928Z,7.32
2019-04-14T11:46:12.234Z,7.36
2019-04-14T11:49:18.338Z,7.46
2019-04-14T11:52:25.745Z,7.34
2019-04-14T11:55:42.511Z,7.40
2019-04-14T11:58:59.315Z,7.50
2019-04-14T12:02:23.780Z,7.54
2019-04-14T12:05:45.769Z,7.50
2019-04-14T12:09:41.740Z,7.56
2019-04-14T12:12:48.976Z,7.65
2019-04-14T12:15:55.739Z,7.89
2019-04-14T12:19:02.964Z,7.81
2019-04-14T12:22:10.105Z,7.83
2019-04-14T12:25:17.331Z,7.77
2019-04-14T12:28:24.463Z,7.76
2019-04-14T12:31:32.852Z,7.63
2019-04-14T12:34:49.503Z,7.52
2019-04-14T12:38:06.763Z,7.68
2019-04-14T12:41:17.742Z,7.60
2019-04-14T12:44:39.204Z,7.71
2019-04-14T12:48:37.503Z,7.94
2019-04-14T12:52:02.441Z,7.86
2019-04-14T12:55:09.819Z,7.81
2019-04-14T12:58:17.905Z,7.67
2019-04-14T13:02:12.303Z,7.78
2019-04-14T13:05:19.473Z,7.77
2019-04-14T13:08:26.797Z,7.70
2019-04-14T13:11:34.026Z,7.69
2019-04-14T13:14:41.432Z,7.67
2019-04-14T13:17:48.693Z,7.58
2019-04-14T13:20:55.923Z,7.58
2019-04-14T13:24:03.161Z,7.48
2019-04-14T13:27:10.483Z,7.64
2019-04-14T13:30:19.747Z,7.75
2019-04-14T13:33:41.461Z,7.80
2019-04-14T13:36:48.788Z,7.91
2019-04-14T13:40:06.312Z,7.85
2019-04-14T13:43:13.931Z,7.93
2019-04-14T13:46:21.149Z,7.95
2019-04-14T13:49:28.439Z,8.03
2019-04-14T13:52:45.998Z,8.02
2019-04-14T13:55:44.718Z,7.84
2019-04-14T13:58:52.414Z,8.08
2019-04-14T14:01:59.839Z,8.19
2019-04-14T14:05:07.319Z,8.24
2019-04-14T14:08:14.643Z,8.26
2019-04-14T14:11:28.679Z,8.40
2019-04-14T14:14:54.907Z,8.36
2019-04-14T14:18:13.462Z,8.08
2019-04-14T14:21:45.561Z,8.23
2019-04-14T14:25:14.475Z,8.26
2019-04-14T14:28:44.982Z,8.49
2019-04-14T14:32:02.836Z,8.50
2019-04-14T14:35:10.067Z,8.47
2019-04-14T14:38:17.197Z,8.34
2019-04-14T14:41:24.423Z,8.34
2019-04-14T14:44:45.446Z,8.33
2019-04-14T14:48:03.491Z,8.25
2019-04-14T14:52:05.308Z,8.36
2019-04-14T14:55:12.567Z,8.39
2019-04-14T14:58:19.708Z,8.34
2019-04-14T15:01:26.940Z,8.27
2019-04-14T15:04:34.249Z,8.35
2019-04-14T15:07:41.455Z,8.31
2019-04-14T15:10:48.894Z,8.26
2019-04-14T15:13:56.031Z,8.21
2019-04-14T15:17:03.371Z,8.31
2019-04-14T15:20:10.688Z,8.25
2019-04-14T15:23:24.704Z,8.29
2019-04-14T15:26:27.865Z,8.38
2019-04-14T15:29:34.987Z,8.24
2019-04-14T15:32:42.331Z,8.26
2019-04-14T15:35:49.982Z,8.33
2019-04-14T15:38:57.356Z,8.26
2019-04-14T15:42:04.743Z,8.35
2019-04-14T15:45:14.290Z,8.32
2019-04-14T15:48:20.169Z,8.15
2019-04-14T15:51:27.486Z,8.15
2019-04-14T15:54:34.742Z,8.02
2019-04-14T15:57:59.836Z,8.14
2019-04-14T16:01:35.055Z,8.08
2019-04-14T16:04:49.085Z,8.07
2019-04-14T16:08:15.296Z,8.03
2019-04-14T16:11:41.527Z,7.79
2019-04-14T16:15:06.369Z,7.98
2019-04-14T16:18:34.907Z,7.91
2019-04-14T16:21:42.314Z,7.94
2019-04-14T16:24:49.703Z,7.89
2019-04-14T16:28:13.945Z,7.82
2019-04-14T16:31:34.215Z,7.87
2019-04-14T16:34:51.034Z,7.92
2019-04-14T16:37:58.337Z,7.94
2019-04-14T16:41:05.639Z,7.93
2019-04-14T16:44:22.340Z,7.95
2019-04-14T16:47:39.063Z,7.90
2019-04-14T16:50:46.375Z,7.74
2019-04-14T16:54:09.585Z,7.82
2019-04-14T16:57:51.912Z,7.75
2019-04-14T17:01:40.048Z,7.76
2019-04-14T17:04:47.199Z,7.79
2019-04-14T17:07:54.470Z,7.64
2019-04-14T17:11:01.795Z,7.68
2019-04-14T17:14:37.199Z,7.52
2019-04-14T17:18:02.116Z,7.55
2019-04-14T17:21:34.755Z,7.66
2019-04-14T17:25:00.503Z,7.61
2019-04-14T17:28:44.060Z,7.63
2019-04-14T17:32:04.491Z,7.52
2019-04-14T17:35:42.362Z,7.52
2019-04-14T17:39:11.163Z,7.46
2019-04-14T17:42:25.264Z,7.50
2019-04-14T17:46:48.479Z,7.43
2019-04-14T17:50:23.484Z,7.48
2019-04-14T17:53:54.635Z,7.37
2019-04-14T17:57:20.863Z,7.37
2019-04-14T18:00:50.313Z,7.37
2019-04-14T18:04:21.467Z,7.37
2019-04-14T18:07:34.434Z,7.33
2019-04-14T18:11:14.037Z,7.33
2019-04-14T18:14:40.379Z,7.23
2019-04-14T18:18:22.107Z,7.38
2019-04-14T18:21:29.427Z,7.31
2019-04-14T18:24:42.733Z,7.35
2019-04-14T18:27:58.311Z,7.31
2019-04-14T18:31:24.622Z,7.32
2019-04-14T18:34:42.953Z,7.32
2019-04-14T18:38:11.967Z,7.34
2019-04-14T18:41:43.005Z,7.34
2019-04-14T18:45:21.399Z,7.39
2019-04-14T18:48:37.493Z,7.33
2019-04-14T18:52:10.992Z,7.43
2019-04-14T18:55:36.052Z,7.38
2019-04-14T18:59:02.187Z,7.35
2019-04-14T19:02:11.323Z,7.35
2019-04-14T19:05:18.559Z,7.36
2019-04-14T19:08:25.879Z,7.22
2019-04-14T19:12:17.193Z,7.35
2019-04-14T19:15:31.851Z,7.38
2019-04-14T19:18:45.075Z,7.40
2019-04-14T19:22:06.729Z,7.50
2019-04-14T19:25:23.403Z,7.39
2019-04-14T19:28:40.295Z,7.39
2019-04-14T19:31:57.015Z,7.43
2019-04-14T19:35:13.788Z,7.47
2019-04-14T19:38:30.540Z,7.38
2019-04-14T19:41:47.383Z,7.39
2019-04-14T19:45:04.451Z,7.45
2019-04-14T19:48:20.951Z,7.23
2019-04-14T19:51:28.293Z,7.33
2019-04-14T19:54:44.890Z,7.38
2019-04-14T19:57:52.107Z,7.43
2019-04-14T20:00:59.625Z,7.46
2019-04-14T20:04:26.167Z,7.45
2019-04-14T20:07:42.886Z,7.43
2019-04-14T20:10:50.115Z,7.43
2019-04-14T20:13:57.383Z,7.31
2019-04-14T20:17:26.459Z,7.46
2019-04-14T20:20:52.663Z,7.46
2019-04-14T20:24:05.832Z,7.41
2019-04-14T20:27:29.127Z,7.36
2019-04-14T20:30:40.118Z,7.31
2019-04-14T20:33:47.351Z,7.44
2019-04-14T20:36:54.597Z,7.39
2019-04-14T20:40:01.949Z,7.45
2019-04-14T20:43:09.228Z,7.44
2019-04-14T20:46:16.492Z,7.28
2019-04-14T20:49:23.626Z,7.37
2019-04-14T20:52:30.951Z,7.33
2019-04-14T20:55:47.947Z,7.39
2019-04-14T20:59:04.595Z,7.38
2019-04-14T21:02:46.505Z,7.47
2019-04-14T21:06:06.932Z,7.39
2019-04-14T21:09:18.119Z,7.23
2019-04-14T21:12:47.171Z,7.32
2019-04-14T21:16:27.779Z,7.38
2019-04-14T21:19:47.305Z,7.29
2019-04-14T21:22:58.972Z,7.29
2019-04-14T21:26:10.410Z,7.29
2019-04-14T21:29:43.179Z,7.23
2019-04-14T21:32:56.519Z,7.25
2019-04-14T21:36:25.415Z,7.34
2019-04-14T21:39:51.595Z,7.28
2019-04-14T21:42:58.834Z,7.21
2019-04-14T21:46:06.213Z,7.21
2019-04-14T21:49:13.800Z,7.13
2019-04-14T21:52:35.387Z,7.25
2019-04-14T21:55:52.093Z,7.21
2019-04-14T21:59:15.295Z,7.24
2019-04-14T22:02:57.583Z,7.22
2019-04-14T22:06:28.524Z,7.22
2019-04-14T22:09:36.447Z,7.03
2019-04-14T22:12:43.822Z,7.13
2019-04-14T22:15:51.128Z,7.05
2019-04-14T22:18:58.835Z,7.00
2019-04-14T22:22:06.209Z,7.11
2019-04-14T22:25:12.083Z,6.93
2019-04-14T22:28:28.823Z,7.07
2019-04-14T22:32:04.874Z,7.04
2019-04-14T22:35:21.814Z,6.98
2019-04-14T22:38:38.428Z,6.98
2019-04-14T22:41:45.575Z,6.91
2019-04-14T22:44:52.845Z,6.90
2019-04-14T22:47:59.964Z,7.00
2019-04-14T22:51:07.299Z,6.82
2019-04-14T22:54:23.943Z,6.93
2019-04-14T22:57:31.103Z,6.89
2019-04-14T23:01:03.039Z,6.70
2019-04-14T23:04:47.691Z,6.93
2019-04-14T23:08:29.028Z,6.79
2019-04-14T23:11:54.834Z,6.66
2019-04-14T23:15:24.069Z,6.86
2019-04-14T23:18:41.463Z,6.76
2019-04-14T23:22:00.410Z,6.79
2019-04-14T23:25:24.699Z,6.73
2019-04-14T23:28:41.574Z,6.78
2019-04-14T23:31:48.863Z,6.53
2019-04-14T23:34:56.009Z,6.77
2019-04-14T23:38:03.311Z,6.69
2019-04-14T23:41:10.451Z,6.64
2019-04-14T23:44:27.255Z,6.79
2019-04-14T23:47:43.986Z,6.69
2019-04-14T23:50:51.222Z,6.70
2019-04-14T23:53:58.450Z,6.62
2019-04-14T23:57:15.323Z,6.62
